createdAt,value
2024-05-09T00:00:39.228Z,21.90
2024-05-09T00:03:09.013Z,20.23
2024-05-09T00:05:37.753Z,18.63
2024-05-09T00:08:05.534Z,20.33
2024-05-09T00:10:36.782Z,19.83
2024-05-09T00:13:09.227Z,20.30
2024-05-09T00:15:37.173Z,19.10
2024-05-09T00:18:05.766Z,19.30
2024-05-09T00:20:39.069Z,21.13
2024-05-09T00:23:08.882Z,21.60
2024-05-09T00:25:36.559Z,18.50
2024-05-09T00:28:03.975Z,20.00
2024-05-09T00:30:36.293Z,19.60
2024-05-09T00:33:06.026Z,18.57
2024-05-09T00:35:34.268Z,21.50
2024-05-09T00:38:01.639Z,20.57
2024-05-09T00:40:39.036Z,20.03
2024-05-09T00:43:09.097Z,21.80
2024-05-09T00:45:39.035Z,21.20
2024-05-09T00:48:08.593Z,21.60
2024-05-09T00:50:38.727Z,20.10
2024-05-09T00:53:06.807Z,20.70
2024-05-09T00:55:35.910Z,20.00
2024-05-09T00:58:03.301Z,21.50
2024-05-09T01:00:35.910Z,21.90
2024-05-09T01:03:11.839Z,21.27
2024-05-09T01:05:41.142Z,20.03
2024-05-09T01:08:09.548Z,22.20
2024-05-09T01:10:37.471Z,22.70
2024-05-09T01:13:05.431Z,22.67
2024-05-09T01:15:33.544Z,20.53
2024-05-09T01:18:01.837Z,21.37
2024-05-09T01:20:40.149Z,21.23
2024-05-09T01:23:15.136Z,22.47
2024-05-09T01:25:43.925Z,23.47
2024-05-09T01:28:11.254Z,26.10
2024-05-09T01:30:38.822Z,25.97
2024-05-09T01:33:08.491Z,26.03
2024-05-09T01:35:37.697Z,24.50
2024-05-09T01:38:05.602Z,19.50
2024-05-09T01:40:39.090Z,21.53
2024-05-09T01:43:07.814Z,19.40
2024-05-09T01:45:35.406Z,22.10
2024-05-09T01:48:03.209Z,21.10
2024-05-09T01:53:01.362Z,22.70
2024-05-09T01:55:28.711Z,23.07
2024-05-09T01:57:58.666Z,20.73
2024-05-09T02:00:34.223Z,23.50
2024-05-09T02:03:09.060Z,23.53
2024-05-09T02:05:36.853Z,23.93
2024-05-09T02:08:04.536Z,23.20
2024-05-09T02:10:33.062Z,25.17
2024-05-09T02:13:03.404Z,24.63
2024-05-09T02:15:30.621Z,23.67
2024-05-09T02:17:58.050Z,23.73
2024-05-09T02:20:33.769Z,23.20
2024-05-09T02:23:04.745Z,23.00
2024-05-09T02:25:32.809Z,24.63
2024-05-09T02:28:02.842Z,22.77
2024-05-09T02:30:38.355Z,24.67
2024-05-09T02:33:09.867Z,24.17
2024-05-09T02:35:38.830Z,24.40
2024-05-09T02:38:06.224Z,25.07
2024-05-09T02:40:37.606Z,24.27
2024-05-09T02:43:10.672Z,25.63
2024-05-09T02:45:38.841Z,26.43
2024-05-09T02:48:07.101Z,24.40
2024-05-09T02:50:38.982Z,27.67
2024-05-09T02:53:07.788Z,24.27
2024-05-09T02:55:35.337Z,24.80
2024-05-09T02:58:02.718Z,26.27
2024-05-09T03:00:39.119Z,25.07
2024-05-09T03:03:10.604Z,25.83
2024-05-09T03:05:40.350Z,24.50
2024-05-09T03:08:08.183Z,26.30
2024-05-09T03:10:37.864Z,24.63
2024-05-09T03:13:06.947Z,24.63
2024-05-09T03:15:37.054Z,25.83
2024-05-09T03:18:05.322Z,25.13
2024-05-09T03:20:35.044Z,26.37
2024-05-09T03:23:04.135Z,25.93
2024-05-09T03:25:31.551Z,26.00
2024-05-09T03:28:00.737Z,25.10
2024-05-09T03:30:36.092Z,25.57
2024-05-09T03:33:14.052Z,26.40
2024-05-09T03:35:43.527Z,26.83
2024-05-09T03:38:10.879Z,29.97
2024-05-09T03:40:44.594Z,28.00
2024-05-09T03:43:11.912Z,28.43
2024-05-09T03:45:39.228Z,29.10
2024-05-09T03:48:06.969Z,30.20
2024-05-09T03:50:39.718Z,28.90
2024-05-09T03:53:07.967Z,30.00
2024-05-09T03:55:35.334Z,28.67
2024-05-09T03:58:02.544Z,29.60
2024-05-09T04:00:37.349Z,29.83
2024-05-09T04:03:09.160Z,27.70
2024-05-09T04:05:42.633Z,28.57
2024-05-09T04:08:13.096Z,28.00
2024-05-09T04:10:40.990Z,28.87
2024-05-09T04:13:08.248Z,28.10
2024-05-09T04:15:35.967Z,27.03
2024-05-09T04:18:03.323Z,30.30
2024-05-09T04:20:37.803Z,28.30
2024-05-09T04:23:11.735Z,30.40
2024-05-09T04:25:41.467Z,29.33
2024-05-09T04:28:08.765Z,31.10
2024-05-09T04:30:39.357Z,31.20
2024-05-09T04:33:11.170Z,29.47
2024-05-09T04:35:40.545Z,29.40
2024-05-09T04:38:11.240Z,30.90
2024-05-09T04:40:38.707Z,28.77
2024-05-09T04:43:06.802Z,28.23
2024-05-09T04:45:34.818Z,28.77
2024-05-09T04:48:02.704Z,29.47
2024-05-09T04:50:36.654Z,29.73
2024-05-09T04:53:07.155Z,27.87
2024-05-09T04:55:38.725Z,28.13
2024-05-09T04:58:07.631Z,29.80
2024-05-09T05:00:37.445Z,26.67
2024-05-09T05:03:07.936Z,29.23
2024-05-09T05:05:38.371Z,29.27
2024-05-09T05:08:06.193Z,29.80
2024-05-09T05:10:36.406Z,30.90
2024-05-09T05:13:07.194Z,28.30
2024-05-09T05:15:34.492Z,25.90
2024-05-09T05:18:01.971Z,24.00
2024-05-09T05:20:33.573Z,26.27
2024-05-09T05:23:01.640Z,28.70
2024-05-09T05:25:28.958Z,28.40
2024-05-09T05:27:56.207Z,26.63
2024-05-09T05:30:29.340Z,28.00
2024-05-09T05:33:01.955Z,27.33
2024-05-09T05:35:29.533Z,28.87
2024-05-09T05:37:56.915Z,29.50
2024-05-09T05:40:32.749Z,29.20
2024-05-09T05:43:03.729Z,27.67
2024-05-09T05:45:33.632Z,29.13
2024-05-09T05:48:03.759Z,28.17
2024-05-09T05:50:35.934Z,25.40
2024-05-09T05:53:05.894Z,28.47
2024-05-09T05:55:33.430Z,26.47
2024-05-09T05:58:01.575Z,27.87
2024-05-09T06:00:37.421Z,30.27
2024-05-09T06:03:10.429Z,27.67
2024-05-09T06:05:38.702Z,27.47
2024-05-09T06:08:06.748Z,30.30
2024-05-09T06:10:38.442Z,30.87
2024-05-09T06:13:08.107Z,27.93
2024-05-09T06:18:26.892Z,26.80
2024-05-09T06:20:54.398Z,29.80
2024-05-09T06:23:21.756Z,32.80
2024-05-09T06:25:49.087Z,33.53
2024-05-09T06:28:16.485Z,29.53
2024-05-09T06:30:43.791Z,30.60
2024-05-09T06:33:13.540Z,30.70
2024-05-09T06:35:46.687Z,29.70
2024-05-09T06:38:14.254Z,28.90
2024-05-09T06:40:43.472Z,32.20
2024-05-09T06:43:11.944Z,31.70
2024-05-09T06:45:39.406Z,32.37
2024-05-09T06:48:07.574Z,30.53
2024-05-09T06:50:37.983Z,29.40
2024-05-09T06:53:09.716Z,32.13
2024-05-09T06:55:37.334Z,30.53
2024-05-09T06:58:06.007Z,28.53
2024-05-09T07:00:38.910Z,29.60
2024-05-09T07:03:08.649Z,28.10
2024-05-09T07:05:38.992Z,32.93
2024-05-09T07:08:09.247Z,30.20
2024-05-09T07:10:37.179Z,31.20
2024-05-09T07:13:08.388Z,31.97
2024-05-09T07:15:35.653Z,32.27
2024-05-09T07:18:08.215Z,32.40
2024-05-09T07:20:35.667Z,34.90
2024-05-09T07:23:03.308Z,30.23
2024-05-09T07:25:33.278Z,31.93
2024-05-09T07:28:00.527Z,32.33
2024-05-09T07:30:33.222Z,31.10
2024-05-09T07:33:02.821Z,32.20
2024-05-09T07:35:31.063Z,30.27
2024-05-09T07:37:58.839Z,28.10
2024-05-09T07:40:33.179Z,34.07
2024-05-09T07:43:07.223Z,33.33
2024-05-09T07:52:24.276Z,32.13
2024-05-09T07:53:39.561Z,32.43
2024-05-09T07:56:11.950Z,28.10
2024-05-09T07:58:43.539Z,30.73
2024-05-09T08:01:10.897Z,27.97
2024-05-09T08:03:38.777Z,30.00
2024-05-09T08:06:06.326Z,26.07
2024-05-09T08:08:33.563Z,26.60
2024-05-09T08:11:01.178Z,26.17
2024-05-09T08:13:28.466Z,26.23
2024-05-09T08:15:58.447Z,26.00
2024-05-09T08:18:25.990Z,27.57
2024-05-09T08:20:53.429Z,27.10
2024-05-09T08:23:20.708Z,27.13
2024-05-09T08:25:48.069Z,27.30
2024-05-09T08:28:15.566Z,26.67
2024-05-09T08:30:43.465Z,24.73
2024-05-09T08:33:13.555Z,26.27
2024-05-09T08:35:40.925Z,27.00
2024-05-09T08:38:08.275Z,24.00
2024-05-09T08:40:37.811Z,26.90
2024-05-09T08:43:07.450Z,26.20
2024-05-09T08:45:35.478Z,24.07
2024-05-09T08:48:03.398Z,24.00
2024-05-09T08:50:38.815Z,25.10
2024-05-09T08:53:07.849Z,25.50
2024-05-09T08:55:37.391Z,24.37
2024-05-09T08:58:07.819Z,24.57
2024-05-09T09:00:37.608Z,23.40
2024-05-09T09:03:06.279Z,23.27
2024-05-09T09:05:37.813Z,23.30
2024-05-09T09:08:07.188Z,20.77
2024-05-09T09:10:34.668Z,22.90
2024-05-09T09:13:02.595Z,22.77
2024-05-09T09:15:30.006Z,22.73
2024-05-09T09:17:58.199Z,23.20
2024-05-09T09:20:33.276Z,22.37
2024-05-09T09:23:06.124Z,23.00
2024-05-09T09:25:33.377Z,23.53
2024-05-09T09:28:00.859Z,22.90
2024-05-09T09:30:36.158Z,20.90
2024-05-09T09:33:05.837Z,20.07
2024-05-09T09:35:33.412Z,20.67
2024-05-09T09:38:02.352Z,22.37
2024-05-09T09:40:36.137Z,22.10
2024-05-09T09:43:09.701Z,18.63
2024-05-09T09:45:37.080Z,20.27
2024-05-09T09:48:05.667Z,20.10
2024-05-09T09:50:35.438Z,20.50
2024-05-09T09:53:04.424Z,16.20
2024-05-09T09:55:35.426Z,18.87
2024-05-09T09:58:05.169Z,19.87
2024-05-09T10:00:34.509Z,19.37
2024-05-09T10:03:02.195Z,20.73
2024-05-09T10:05:30.516Z,18.50
2024-05-09T10:07:59.073Z,17.17
2024-05-09T10:10:31.759Z,18.03
2024-05-09T10:13:03.563Z,18.40
2024-05-09T10:15:31.463Z,15.87
2024-05-09T10:18:05.094Z,14.80
2024-05-09T10:20:39.990Z,12.17
2024-05-09T10:23:22.283Z,14.17
2024-05-09T10:25:55.086Z,13.97
2024-05-09T10:28:28.311Z,14.13
2024-05-09T10:31:02.929Z,11.63
2024-05-09T10:33:36.708Z,10.23
2024-05-09T10:36:04.163Z,10.75
2024-05-09T10:38:31.588Z,9.65
2024-05-09T10:41:00.570Z,12.45
2024-05-09T10:43:31.666Z,12.05
2024-05-09T10:45:58.964Z,12.60
2024-05-09T10:48:26.895Z,11.82
2024-05-09T10:50:54.212Z,12.77
2024-05-09T10:53:21.451Z,14.23
2024-05-09T10:55:55.990Z,15.65
2024-05-09T10:58:23.687Z,19.10
2024-05-09T11:00:54.291Z,16.98
2024-05-09T11:03:23.355Z,17.73
2024-05-09T11:05:50.929Z,19.88
2024-05-09T11:08:18.796Z,18.75
2024-05-09T11:10:46.423Z,16.85
2024-05-09T11:13:13.881Z,16.93
2024-05-09T11:15:41.432Z,15.83
2024-05-09T11:18:24.750Z,15.57
2024-05-09T11:20:53.267Z,16.87
2024-05-09T11:23:20.816Z,16.27
2024-05-09T11:25:50.886Z,15.63
2024-05-09T11:28:18.263Z,16.07
2024-05-09T11:30:45.560Z,15.40
2024-05-09T11:33:16.106Z,13.17
2024-05-09T11:35:43.670Z,16.87
2024-05-09T11:38:11.103Z,14.80
2024-05-09T11:40:38.736Z,14.27
2024-05-09T11:43:06.433Z,14.53
2024-05-09T11:45:33.811Z,13.77
2024-05-09T11:48:01.397Z,14.20
2024-05-09T11:50:35.411Z,13.27
2024-05-09T11:53:03.585Z,13.13
2024-05-09T11:55:31.002Z,13.70
2024-05-09T11:57:58.451Z,13.50
2024-05-09T12:00:33.956Z,14.70
2024-05-09T12:03:05.419Z,12.93
2024-05-09T12:05:35.978Z,12.68
2024-05-09T12:08:03.360Z,13.15
2024-05-09T12:10:33.838Z,12.02
2024-05-09T12:13:04.530Z,13.48
2024-05-09T12:15:33.431Z,13.55
2024-05-09T12:18:03.393Z,13.75
2024-05-09T12:20:36.874Z,12.50
2024-05-09T12:23:10.381Z,10.43
2024-05-09T12:25:38.591Z,11.07
2024-05-09T12:28:06.508Z,10.93
2024-05-09T12:30:38.295Z,13.15
2024-05-09T12:33:08.689Z,11.00
2024-05-09T12:35:36.420Z,9.52
2024-05-09T12:38:03.758Z,8.68
2024-05-09T12:40:37.046Z,7.97
2024-05-09T12:43:06.985Z,9.50
2024-05-09T12:45:34.724Z,9.88
2024-05-09T12:48:02.112Z,10.35
2024-05-09T12:50:32.859Z,8.85
2024-05-09T12:53:02.620Z,9.32
2024-05-09T12:55:41.355Z,10.10
2024-05-09T12:58:16.027Z,9.77
2024-05-09T13:00:43.716Z,9.23
2024-05-09T13:03:11.139Z,10.30
2024-05-09T13:05:38.479Z,6.95
2024-05-09T13:08:06.322Z,6.75
2024-05-09T13:10:36.247Z,7.82
2024-05-09T13:13:03.686Z,7.15
2024-05-09T13:15:31.671Z,6.40
2024-05-09T13:18:02.626Z,8.77
2024-05-09T13:20:33.908Z,8.10
2024-05-09T13:23:03.277Z,12.00
2024-05-09T13:25:30.607Z,11.52
2024-05-09T13:28:00.750Z,11.63
2024-05-09T13:30:35.786Z,11.48
2024-05-09T13:33:07.617Z,11.43
2024-05-09T13:35:35.748Z,11.55
2024-05-09T13:38:04.788Z,10.23
2024-05-09T13:40:35.221Z,10.57
2024-05-09T13:43:06.686Z,11.60
2024-05-09T13:45:34.569Z,12.18
2024-05-09T13:48:02.681Z,9.82
2024-05-09T13:50:34.666Z,9.45
2024-05-09T13:53:03.983Z,8.32
2024-05-09T13:55:31.280Z,8.70
2024-05-09T13:57:58.633Z,11.60
2024-05-09T14:00:41.726Z,11.73
2024-05-09T14:03:14.702Z,7.60
2024-05-09T14:05:42.380Z,9.18
2024-05-09T14:08:10.038Z,8.35
2024-05-09T14:10:37.680Z,10.13
2024-05-09T14:13:05.323Z,10.35
2024-05-09T14:15:35.278Z,8.63
2024-05-09T14:18:02.739Z,9.55
2024-05-09T14:20:32.124Z,9.85
2024-05-09T14:23:00.534Z,9.02
2024-05-09T14:25:28.794Z,8.93
2024-05-09T14:27:56.719Z,7.00
2024-05-09T14:30:31.002Z,8.25
2024-05-09T14:33:07.776Z,7.72
2024-05-09T14:35:36.167Z,8.45
2024-05-09T14:38:03.801Z,7.63
2024-05-09T14:40:40.112Z,8.30
2024-05-09T14:43:11.020Z,8.60
2024-05-09T14:45:38.476Z,7.72
2024-05-09T14:48:09.353Z,7.85
2024-05-09T14:50:39.314Z,10.27
2024-05-09T14:53:08.143Z,9.63
2024-05-09T14:55:36.905Z,9.45
2024-05-09T14:58:06.388Z,8.35
2024-05-09T15:00:36.257Z,7.70
2024-05-09T15:03:05.058Z,9.13
2024-05-09T15:05:35.024Z,9.35
2024-05-09T15:08:02.465Z,9.52
2024-05-09T15:10:34.783Z,9.93
2024-05-09T15:13:04.226Z,9.93
2024-05-09T15:15:31.904Z,10.13
2024-05-09T15:17:59.630Z,12.23
2024-05-09T15:20:33.965Z,13.23
2024-05-09T15:23:07.385Z,16.52
2024-05-09T15:25:34.940Z,15.77
2024-05-09T15:28:02.368Z,14.90
2024-05-09T15:30:32.530Z,14.85
2024-05-09T15:33:01.688Z,14.70
2024-05-09T15:35:28.959Z,14.95
2024-05-09T15:37:56.345Z,15.13
2024-05-09T15:40:35.449Z,13.13
2024-05-09T15:43:07.631Z,12.00
2024-05-09T15:45:35.495Z,12.32
2024-05-09T15:48:03.838Z,10.63
2024-05-09T15:50:37.859Z,11.02
2024-05-09T15:53:09.012Z,10.48
2024-05-09T15:55:39.640Z,11.48
2024-05-09T15:58:07.581Z,13.10
2024-05-09T16:00:39.387Z,14.00
2024-05-09T16:03:10.093Z,12.57
2024-05-09T16:05:38.040Z,14.80
2024-05-09T16:08:06.177Z,14.73
2024-05-09T16:10:34.789Z,15.07
2024-05-09T16:13:05.688Z,14.17
2024-05-09T16:15:33.070Z,14.10
2024-05-09T16:18:00.764Z,14.90
2024-05-09T16:20:37.340Z,14.87
2024-05-09T16:23:08.521Z,15.17
2024-05-09T16:25:36.265Z,16.40
2024-05-09T16:28:09.939Z,15.47
2024-05-09T16:30:38.323Z,15.50
2024-05-09T16:33:07.152Z,15.47
2024-05-09T16:35:35.287Z,16.20
2024-05-09T16:38:03.394Z,13.97
2024-05-09T16:40:37.800Z,13.30
2024-05-09T16:43:10.901Z,12.87
2024-05-09T16:45:39.704Z,12.93
2024-05-09T16:48:07.627Z,13.77
2024-05-09T16:50:35.945Z,13.57
2024-05-09T16:53:04.634Z,13.50
2024-05-09T16:55:32.809Z,13.30
2024-05-09T16:58:00.459Z,13.53
2024-05-09T17:00:38.901Z,11.47
2024-05-09T17:03:10.642Z,12.40
2024-05-09T17:05:39.018Z,12.40
2024-05-09T17:08:07.116Z,11.50
2024-05-09T17:10:35.423Z,12.70
2024-05-09T17:13:04.434Z,12.23
2024-05-09T17:15:36.466Z,11.33
2024-05-09T17:18:04.967Z,11.77
2024-05-09T17:20:35.584Z,10.93
2024-05-09T17:23:05.709Z,10.50
2024-05-09T17:25:33.773Z,11.47
2024-05-09T17:28:02.127Z,11.90
2024-05-09T17:30:35.305Z,11.97
2024-05-09T17:33:08.800Z,11.67
2024-05-09T17:35:37.192Z,11.67
2024-05-09T17:38:04.788Z,12.10
2024-05-09T17:40:35.787Z,10.83
2024-05-09T17:43:05.816Z,11.37
2024-05-09T17:45:33.864Z,11.80
2024-05-09T17:48:01.981Z,10.80
2024-05-09T17:50:35.904Z,10.10
2024-05-09T17:53:05.221Z,10.10
2024-05-09T17:55:32.831Z,9.80
2024-05-09T17:58:00.282Z,10.50
2024-05-09T18:00:36.852Z,9.90
2024-05-09T18:03:07.776Z,10.13
2024-05-09T18:05:38.255Z,9.63
2024-05-09T18:08:06.240Z,8.80
2024-05-09T18:10:37.770Z,10.23
2024-05-09T18:13:07.518Z,9.10
2024-05-09T18:15:35.074Z,8.07
2024-05-09T18:18:03.315Z,8.50
2024-05-09T18:20:40.497Z,9.30
2024-05-09T18:23:16.262Z,9.40
2024-05-09T18:25:45.063Z,6.90
2024-05-09T18:28:12.402Z,7.10
2024-05-09T18:30:40.644Z,7.13
2024-05-09T18:33:10.350Z,8.17
2024-05-09T18:35:38.305Z,6.83
2024-05-09T18:38:06.046Z,8.27
2024-05-09T18:40:38.055Z,8.00
2024-05-09T18:43:08.480Z,9.07
2024-05-09T18:45:37.508Z,8.27
2024-05-09T18:48:06.451Z,8.93
2024-05-09T18:50:38.008Z,8.73
2024-05-09T18:53:07.746Z,8.27
2024-05-09T18:55:37.701Z,8.30
2024-05-09T18:58:05.265Z,8.13
2024-05-09T19:00:36.436Z,8.77
2024-05-09T19:03:06.994Z,8.10
2024-05-09T19:05:35.984Z,9.00
2024-05-09T19:08:03.758Z,8.33
2024-05-09T19:10:34.514Z,8.23
2024-05-09T19:13:10.198Z,8.67
2024-05-09T19:15:40.670Z,8.97
2024-05-09T19:18:08.608Z,8.43
2024-05-09T19:20:37.064Z,8.10
2024-05-09T19:23:05.269Z,8.20
2024-05-09T19:25:33.113Z,9.50
2024-05-09T19:28:00.717Z,7.97
2024-05-09T19:30:38.535Z,8.93
2024-05-09T19:33:09.670Z,8.67
2024-05-09T19:35:37.811Z,8.90
2024-05-09T19:38:05.549Z,8.07
2024-05-09T19:40:34.499Z,8.53
2024-05-09T19:43:03.585Z,10.13
2024-05-09T19:45:34.843Z,9.63
2024-05-09T19:48:03.265Z,8.53
2024-05-09T19:50:37.557Z,9.00
2024-05-09T19:53:10.578Z,9.30
2024-05-09T19:55:38.412Z,8.50
2024-05-09T19:58:06.962Z,9.23
2024-05-09T20:00:40.277Z,9.20
2024-05-09T20:03:10.426Z,9.07
2024-05-09T20:05:38.528Z,9.20
2024-05-09T20:08:06.856Z,9.10
2024-05-09T20:10:35.791Z,9.93
2024-05-09T20:13:04.995Z,8.73
2024-05-09T20:15:34.345Z,9.33
2024-05-09T20:18:05.335Z,9.40
2024-05-09T20:20:38.337Z,9.17
2024-05-09T20:23:09.554Z,10.67
2024-05-09T20:25:37.358Z,10.53
2024-05-09T20:28:05.259Z,9.27
2024-05-09T20:30:34.236Z,10.23
2024-05-09T20:33:06.332Z,10.60
2024-05-09T20:35:35.199Z,10.10
2024-05-09T20:38:03.714Z,9.20
2024-05-09T20:40:35.520Z,9.93
2024-05-09T20:43:06.566Z,10.80
2024-05-09T20:45:34.759Z,8.60
2024-05-09T20:48:05.262Z,9.90
2024-05-09T20:50:38.773Z,10.70
2024-05-09T20:53:08.955Z,11.37
2024-05-09T20:55:36.473Z,10.93
2024-05-09T20:58:03.890Z,11.33
2024-05-09T21:00:38.983Z,11.27
2024-05-09T21:03:13.145Z,10.87
2024-05-09T21:05:41.662Z,10.07
2024-05-09T21:08:09.290Z,12.23
2024-05-09T21:10:37.223Z,11.83
2024-05-09T21:13:06.054Z,10.90
2024-05-09T21:15:34.344Z,11.43
2024-05-09T21:18:01.780Z,12.33
2024-05-09T21:20:33.092Z,12.07
2024-05-09T21:23:01.341Z,11.63
2024-05-09T21:25:29.072Z,13.70
2024-05-09T21:27:56.340Z,11.17
2024-05-09T21:30:32.590Z,10.60
2024-05-09T21:33:08.311Z,11.33
2024-05-09T21:35:38.774Z,12.93
2024-05-09T21:38:06.090Z,10.03
2024-05-09T21:40:35.601Z,12.00
2024-05-09T21:43:04.493Z,13.00
2024-05-09T21:45:32.079Z,11.30
2024-05-09T21:47:59.573Z,12.07
2024-05-09T21:50:35.836Z,10.53
2024-05-09T21:53:10.061Z,11.53
2024-05-09T21:55:37.502Z,11.40
2024-05-09T21:58:05.053Z,11.50
2024-05-09T22:00:36.928Z,12.03
2024-05-09T22:03:06.740Z,12.60
2024-05-09T22:05:34.889Z,12.20
2024-05-09T22:08:02.367Z,11.63
2024-05-09T22:10:35.026Z,11.20
2024-05-09T22:13:04.440Z,11.90
2024-05-09T22:15:33.031Z,12.20
2024-05-09T22:18:00.492Z,11.50
2024-05-09T22:20:34.503Z,13.00
2024-05-09T22:23:05.501Z,12.70
2024-05-09T22:25:35.477Z,12.60
2024-05-09T22:28:03.341Z,13.90
2024-05-09T22:30:36.996Z,12.90
2024-05-09T22:33:07.405Z,12.93
2024-05-09T22:35:34.933Z,12.97
2024-05-09T22:38:03.032Z,13.43
2024-05-09T22:40:38.995Z,13.27
2024-05-09T22:43:17.337Z,14.57
2024-05-09T22:45:45.024Z,14.80
2024-05-09T22:48:12.506Z,14.00
2024-05-09T22:50:40.388Z,14.93
2024-05-09T22:53:07.717Z,13.30
2024-05-09T22:55:34.975Z,14.80
2024-05-09T22:58:02.356Z,13.60
2024-05-09T23:00:33.155Z,15.33
2024-05-09T23:03:01.437Z,14.17
2024-05-09T23:05:29.467Z,14.93
2024-05-09T23:07:57.143Z,15.23
2024-05-09T23:10:31.589Z,14.30
2024-05-09T23:13:03.757Z,16.33
2024-05-09T23:15:34.035Z,15.13
2024-05-09T23:18:01.459Z,15.03
2024-05-09T23:20:36.521Z,15.10
2024-05-09T23:23:06.776Z,15.13
2024-05-09T23:25:34.244Z,14.20
2024-05-09T23:28:01.759Z,14.53
2024-05-09T23:30:36.972Z,15.53
2024-05-09T23:33:10.444Z,14.43
2024-05-09T23:35:38.106Z,15.10
2024-05-09T23:38:05.689Z,13.80
2024-05-09T23:43:03.684Z,16.37
2024-05-09T23:45:31.158Z,16.03
2024-05-09T23:47:58.654Z,15.50
2024-05-09T23:50:35.801Z,15.50
2024-05-09T23:53:06.308Z,15.47
2024-05-09T23:55:34.558Z,15.87
2024-05-09T23:58:01.899Z,15.10
